createdAt,value
2023-04-27T00:00:26.812Z,100840.41
2023-04-27T00:05:53.137Z,100839.47
2023-04-27T00:10:59.775Z,100841.09
2023-04-27T00:16:08.552Z,100835.00
2023-04-27T00:21:15.124Z,100846.16
2023-04-27T00:26:22.797Z,100844.34
2023-04-27T00:31:32.941Z,100847.75
2023-04-27T00:36:40.011Z,100848.50
2023-04-27T00:41:46.887Z,100858.75
2023-04-27T00:46:55.277Z,100858.72
2023-04-27T00:52:02.133Z,100854.34
2023-04-27T00:57:09.739Z,100859.34
2023-04-27T01:02:17.965Z,100859.25
2023-04-27T01:07:27.609Z,100873.84
2023-04-27T01:12:34.149Z,100871.09
2023-04-27T01:17:42.110Z,100870.25
2023-04-27T01:22:48.579Z,100864.25
2023-04-27T01:27:57.099Z,100870.25
2023-04-27T01:33:04.217Z,100868.38
2023-04-27T01:38:10.934Z,100861.41
2023-04-27T01:43:18.751Z,100868.31
2023-04-27T01:48:25.418Z,100866.59
2023-04-27T01:53:31.924Z,100869.00
2023-04-27T01:58:39.911Z,100875.97
2023-04-27T02:03:46.366Z,100875.91
2023-04-27T02:08:52.988Z,100882.72
2023-04-27T02:14:01.462Z,100882.59
2023-04-27T02:19:31.141Z,100885.00
2023-04-27T02:24:38.391Z,100876.31
2023-04-27T02:29:46.275Z,100872.63
2023-04-27T02:34:53.128Z,100877.63
2023-04-27T02:40:00.265Z,100864.50
2023-04-27T02:45:10.723Z,100868.91
2023-04-27T02:50:17.176Z,100879.41
2023-04-27T02:55:25.061Z,100877.75
2023-04-27T03:00:32.866Z,100869.13
2023-04-27T03:05:39.419Z,100886.31
2023-04-27T03:10:45.953Z,100898.31
2023-04-27T03:15:54.576Z,100898.91
2023-04-27T03:21:09.139Z,100904.13
2023-04-27T03:26:17.130Z,100902.34
2023-04-27T03:31:25.325Z,100908.28
2023-04-27T03:36:32.566Z,100909.50
2023-04-27T03:41:39.310Z,100904.34
2023-04-27T03:46:47.205Z,100912.28
2023-04-27T03:51:53.916Z,100907.06
2023-04-27T03:57:00.233Z,100913.34
2023-04-27T04:02:09.969Z,100917.84
2023-04-27T04:07:16.616Z,100916.19
2023-04-27T04:12:23.012Z,100925.94
2023-04-27T04:17:34.292Z,100929.22
2023-04-27T04:22:41.894Z,100936.34
2023-04-27T04:27:49.849Z,100933.84
2023-04-27T04:32:57.992Z,100927.78
2023-04-27T04:38:04.577Z,100938.50
2023-04-27T04:43:11.553Z,100956.03
2023-04-27T04:48:20.303Z,100957.34
2023-04-27T04:53:26.805Z,100949.28
2023-04-27T04:58:35.418Z,100942.66
2023-04-27T05:03:46.046Z,100954.78
2023-04-27T05:08:52.867Z,100951.41
2023-04-27T05:13:59.754Z,100960.13
2023-04-27T05:19:08.891Z,100969.75
2023-04-27T05:24:15.628Z,100966.41
2023-04-27T05:29:22.489Z,100963.03
2023-04-27T05:34:30.530Z,100958.00
2023-04-27T05:39:36.964Z,100963.25
2023-04-27T05:44:43.523Z,100963.31
2023-04-27T05:49:54.544Z,100971.16
2023-04-27T05:55:01.516Z,100967.84
2023-04-27T06:00:11.452Z,100974.84
2023-04-27T06:05:22.532Z,100975.72
2023-04-27T06:10:36.982Z,100976.66
2023-04-27T06:15:43.482Z,100976.66
2023-04-27T06:20:51.608Z,100974.97
2023-04-27T06:25:59.153Z,100977.56
2023-04-27T06:31:07.867Z,100991.38
2023-04-27T06:36:16.353Z,100993.16
2023-04-27T06:41:23.109Z,100988.88
2023-04-27T06:46:29.647Z,100987.13
2023-04-27T06:51:39.548Z,100993.19
2023-04-27T06:56:46.418Z,101000.97
2023-04-27T07:01:53.128Z,101000.09
2023-04-27T07:07:01.389Z,101008.75
2023-04-27T07:12:09.594Z,101014.81
2023-04-27T07:17:15.866Z,101014.78
2023-04-27T07:22:23.880Z,101013.91
2023-04-27T07:27:32.226Z,101018.25
2023-04-27T07:32:42.991Z,101008.72
2023-04-27T07:37:51.693Z,101012.16
2023-04-27T07:43:00.176Z,101002.63
2023-04-27T07:48:07.174Z,101003.47
2023-04-27T07:53:14.828Z,101000.81
2023-04-27T07:58:21.627Z,101008.56
2023-04-27T08:03:28.709Z,101011.09
2023-04-27T08:08:37.263Z,101013.63
2023-04-27T08:13:43.893Z,101013.56
2023-04-27T08:18:51.437Z,100998.78
2023-04-27T08:23:59.420Z,101003.03
2023-04-27T08:29:19.533Z,101005.63
2023-04-27T08:34:33.538Z,101014.22
2023-04-27T08:39:41.940Z,101016.88
2023-04-27T08:44:48.351Z,101008.19
2023-04-27T08:49:54.572Z,101013.22
2023-04-27T08:55:02.417Z,100998.28
2023-04-27T09:00:13.683Z,101005.16
2023-04-27T09:05:21.102Z,101011.25
2023-04-27T09:10:30.162Z,101006.94
2023-04-27T09:15:47.767Z,101010.34
2023-04-27T09:20:55.899Z,101000.00
2023-04-27T09:26:08.448Z,100994.72
2023-04-27T09:31:14.613Z,100996.22
2023-04-27T09:36:22.785Z,100980.34
2023-04-27T09:41:31.049Z,100985.22
2023-04-27T09:46:37.831Z,100991.06
2023-04-27T09:51:44.100Z,100983.19
2023-04-27T09:57:04.460Z,101002.16
2023-04-27T10:02:24.285Z,101008.06
2023-04-27T10:07:33.572Z,101007.16
2023-04-27T10:12:41.599Z,101013.25
2023-04-27T10:17:54.821Z,101006.31
2023-04-27T10:23:01.943Z,101014.75
2023-04-27T10:28:10.086Z,101015.56
2023-04-27T10:33:20.981Z,101014.63
2023-04-27T10:38:33.127Z,101007.69
2023-04-27T10:43:41.181Z,101007.53
2023-04-27T10:48:49.511Z,101009.28
2023-04-27T10:53:56.265Z,101026.97
2023-04-27T10:59:07.957Z,101026.19
2023-04-27T11:04:16.892Z,101023.56
2023-04-27T11:09:30.714Z,101026.19
2023-04-27T11:14:38.838Z,101026.91
2023-04-27T11:19:48.956Z,101033.91
2023-04-27T11:24:55.937Z,101031.31
2023-04-27T11:30:03.991Z,101035.66
2023-04-27T11:35:11.710Z,101029.69
2023-04-27T11:40:20.718Z,101030.47
2023-04-27T11:45:29.940Z,101038.97
2023-04-27T11:50:36.570Z,101019.50
2023-04-27T11:55:43.781Z,101013.97
2023-04-27T12:00:53.576Z,101020.00
2023-04-27T12:06:21.626Z,101021.78
2023-04-27T12:11:30.348Z,101009.69
2023-04-27T12:16:38.755Z,101010.41
2023-04-27T12:21:45.809Z,101014.59
2023-04-27T12:26:53.070Z,101016.19
2023-04-27T12:32:01.369Z,101022.06
2023-04-27T12:37:08.330Z,101028.09
2023-04-27T12:42:15.180Z,101022.91
2023-04-27T12:47:46.037Z,101028.09
2023-04-27T12:52:52.543Z,101029.91
2023-04-27T12:57:59.565Z,101028.97
2023-04-27T13:03:08.855Z,101032.31
2023-04-27T13:08:15.616Z,101039.28
2023-04-27T13:13:22.163Z,101034.00
2023-04-27T13:18:32.881Z,101040.84
2023-04-27T13:23:41.479Z,101045.13
2023-04-27T13:28:48.874Z,101051.16
2023-04-27T13:33:57.023Z,101049.34
2023-04-27T13:39:06.836Z,101045.75
2023-04-27T13:44:13.779Z,101047.47
2023-04-27T13:49:22.924Z,101041.34
2023-04-27T13:54:29.414Z,101059.06
2023-04-27T13:59:35.694Z,101067.78
2023-04-27T14:04:43.734Z,101062.78
2023-04-27T14:09:54.720Z,101061.09
2023-04-27T14:15:01.670Z,101070.00
2023-04-27T14:20:12.768Z,101065.03
2023-04-27T14:25:20.884Z,101070.25
2023-04-27T14:30:29.201Z,101070.34
2023-04-27T14:35:38.793Z,101071.19
2023-04-27T14:40:45.542Z,101066.78
2023-04-27T14:45:55.643Z,101069.34
2023-04-27T14:51:09.894Z,101067.59
2023-04-27T14:56:16.348Z,101074.47
2023-04-27T15:01:23.203Z,101082.47
2023-04-27T15:06:31.824Z,101083.56
2023-04-27T15:11:38.317Z,101084.56
2023-04-27T15:16:44.881Z,101086.38
2023-04-27T15:21:53.051Z,101089.06
2023-04-27T15:26:59.901Z,101095.19
2023-04-27T15:32:06.961Z,101084.66
2023-04-27T15:37:15.324Z,101091.53
2023-04-27T15:42:22.363Z,101092.28
2023-04-27T15:47:29.456Z,101096.75
2023-04-27T15:52:37.748Z,101095.94
2023-04-27T15:57:44.474Z,101104.78
2023-04-27T16:02:51.274Z,101104.00
2023-04-27T16:07:59.664Z,101102.47
2023-04-27T16:13:07.933Z,101105.09
2023-04-27T16:18:14.896Z,101093.81
2023-04-27T16:23:23.248Z,101096.41
2023-04-27T16:28:29.821Z,101107.69
2023-04-27T16:33:36.670Z,101108.59
2023-04-27T16:38:45.104Z,101107.72
2023-04-27T16:43:52.215Z,101102.63
2023-04-27T16:48:59.065Z,101106.22
2023-04-27T16:54:07.522Z,101108.03
2023-04-27T16:59:14.455Z,101115.97
2023-04-27T17:04:21.500Z,101123.78
2023-04-27T17:09:29.591Z,101123.81
2023-04-27T17:14:36.128Z,101123.91
2023-04-27T17:19:43.144Z,101117.88
2023-04-27T17:24:51.505Z,101122.34
2023-04-27T17:29:58.476Z,101116.34
2023-04-27T17:35:05.819Z,101125.94
2023-04-27T17:40:16.832Z,101122.56
2023-04-27T17:45:24.593Z,101133.03
2023-04-27T17:50:32.750Z,101136.59
2023-04-27T17:55:41.331Z,101135.78
2023-04-27T18:00:48.044Z,101147.13
2023-04-27T18:05:55.433Z,101152.34
2023-04-27T18:11:07.099Z,101156.78
2023-04-27T18:16:13.864Z,101165.50
2023-04-27T18:21:21.204Z,101171.69
2023-04-27T18:26:31.026Z,101171.75
2023-04-27T18:31:39.179Z,101177.03
2023-04-27T18:36:51.586Z,101181.38
2023-04-27T18:42:01.362Z,101180.59
2023-04-27T18:47:09.439Z,101183.22
2023-04-27T18:52:17.032Z,101187.56
2023-04-27T18:57:26.953Z,101195.41
2023-04-27T19:02:38.483Z,101188.50
2023-04-27T19:07:45.588Z,101197.19
2023-04-27T19:12:53.997Z,101201.53
2023-04-27T19:18:07.106Z,101195.47
2023-04-27T19:23:19.827Z,101198.94
2023-04-27T19:28:28.817Z,101209.28
2023-04-27T19:33:37.230Z,101204.94
2023-04-27T19:38:46.333Z,101201.47
2023-04-27T19:43:55.388Z,101201.38
2023-04-27T19:49:07.308Z,101201.34
2023-04-27T19:54:14.969Z,101210.81
2023-04-27T19:59:24.027Z,101209.03
2023-04-27T20:04:31.207Z,101212.34
2023-04-27T20:09:39.945Z,101215.81
2023-04-27T20:14:48.392Z,101217.53
2023-04-27T20:19:57.597Z,101232.13
2023-04-27T20:25:04.552Z,101230.31
2023-04-27T20:30:14.010Z,101219.06
2023-04-27T20:35:20.940Z,101232.75
2023-04-27T20:40:27.620Z,101237.03
2023-04-27T20:45:37.175Z,101245.66
2023-04-27T20:50:44.706Z,101247.34
2023-04-27T20:55:51.992Z,101248.19
2023-04-27T21:01:01.036Z,101250.75
2023-04-27T21:06:08.550Z,101245.50
2023-04-27T21:11:17.889Z,101255.78
2023-04-27T21:16:26.828Z,101240.31
2023-04-27T21:21:33.817Z,101247.19
2023-04-27T21:26:40.933Z,101249.75
2023-04-27T21:31:49.444Z,101255.59
2023-04-27T21:36:56.982Z,101252.94
2023-04-27T21:42:03.769Z,101253.03
2023-04-27T21:47:12.164Z,101253.94
2023-04-27T21:52:20.371Z,101263.38
2023-04-27T21:57:27.432Z,101262.41
2023-04-27T22:02:36.437Z,101263.13
2023-04-27T22:07:43.965Z,101273.25
2023-04-27T22:12:51.283Z,101268.81
2023-04-27T22:17:59.855Z,101270.31
2023-04-27T22:23:10.094Z,101272.03
2023-04-27T22:28:16.915Z,101272.88
2023-04-27T22:33:25.289Z,101267.72
2023-04-27T22:38:32.373Z,101278.84
2023-04-27T22:43:38.867Z,101277.75
2023-04-27T22:48:47.735Z,101272.38
2023-04-27T22:53:54.336Z,101277.28
2023-04-27T22:59:02.384Z,101280.50
2023-04-27T23:04:10.722Z,101284.66
2023-04-27T23:09:17.645Z,101275.16
2023-04-27T23:14:24.196Z,101279.41
2023-04-27T23:19:32.455Z,101281.06
2023-04-27T23:24:39.082Z,101284.34
2023-04-27T23:29:45.399Z,101287.56
2023-04-27T23:34:56.773Z,101281.91
2023-04-27T23:40:09.380Z,101278.66
2023-04-27T23:45:16.285Z,101280.44
2023-04-27T23:50:25.031Z,101277.88
2023-04-27T23:55:35.613Z,101279.53
